International Virtual Aviation Organisation

Russian Federation and Kazakhstan MCD

 

Карточка аэропорта UAKK

Внимание!
Информация на этой странице в стадии наполнения.
Если вы не увидели какой-то информации, или заметили неточность - пожалуйста сообщите нам!
Спасибо!
Команда RU-STAFF
Название аэропортаКараганда
Название аэропорта (англ.)Karaganda
Превышение1768 ft. (538.9 m.)
Координаты49°40.302', 73°20.118'
Высота перехода10000
Эшелон переходаby ATC
Коды ответчика0630-0637, 7220-7227
Зона ОрВДНур-Султан РПИ (UACN)
Данные METARUAKK 131130Z 19003MPS 1600 R23/1600U SN BKN012 OVC023 M02/M03 Q1011 R23/591035 NOSIG RMK QFE712/0949
Проноз погоды (TAF)UAKK 130500Z 1306/1406 18007MPS 3100 -SN BR BKN015 OVC030 TXM00/1309Z TNM06/1401Z TEMPO 1306/1310 0700 +SNRA SCT003 BKN011 BECMG 1310/1312 22006MPS TEMPO 1310/1320 0500 SHSNRA FZFG BKN001 BKN011CB TEMPO 1320/1406 VRB02MPS 0500 SHSN FZFG BKN002 BKN015CB
NOTAMshow/hide NOTAM
AWOS   TABLE

Информация о ВПП

ВПП Длина ВПП (м.) Покрытие Курс ВПП Частота ILS
053601Железобетон50109.9
233601Железобетон230111.7

Диспетчерские позиции




Спутниковое изображение